sensor_id;sensor_type;location;lat;lon;timestamp;P1;durP1;ratioP1;P2;durP2;ratioP2
66761;SDS011;53672;48.176;16.338;2023-02-15T00:02:49;36.00;;;13.68;;
66761;SDS011;53672;48.176;16.338;2023-02-15T00:07:50;38.30;;;14.03;;
66761;SDS011;53672;48.176;16.338;2023-02-15T00:12:52;35.97;;;14.70;;
66761;SDS011;53672;48.176;16.338;2023-02-15T00:17:52;37.40;;;15.23;;
66761;SDS011;53672;48.176;16.338;2023-02-15T00:22:53;38.17;;;14.70;;
66761;SDS011;53672;48.176;16.338;2023-02-15T00:27:54;36.03;;;14.63;;
66761;SDS011;53672;48.176;16.338;2023-02-15T00:32:55;33.85;;;13.95;;
66761;SDS011;53672;48.176;16.338;2023-02-15T00:37:55;34.87;;;13.53;;
66761;SDS011;53672;48.176;16.338;2023-02-15T00:42:57;38.37;;;14.97;;
66761;SDS011;53672;48.176;16.338;2023-02-15T00:47:58;40.97;;;14.80;;
66761;SDS011;53672;48.176;16.338;2023-02-15T00:52:58;37.83;;;14.90;;
66761;SDS011;53672;48.176;16.338;2023-02-15T00:58:00;39.43;;;15.40;;
66761;SDS011;53672;48.176;16.338;2023-02-15T01:03:01;37.65;;;13.65;;
66761;SDS011;53672;48.176;16.338;2023-02-15T01:08:02;36.83;;;14.52;;
66761;SDS011;53672;48.176;16.338;2023-02-15T01:13:04;36.33;;;13.97;;
66761;SDS011;53672;48.176;16.338;2023-02-15T01:18:05;34.97;;;13.77;;
66761;SDS011;53672;48.176;16.338;2023-02-15T01:23:06;34.30;;;14.60;;
66761;SDS011;53672;48.176;16.338;2023-02-15T01:28:08;39.15;;;15.18;;
66761;SDS011;53672;48.176;16.338;2023-02-15T01:33:09;38.55;;;14.63;;
66761;SDS011;53672;48.176;16.338;2023-02-15T01:38:10;37.93;;;15.07;;
66761;SDS011;53672;48.176;16.338;2023-02-15T01:43:12;38.53;;;15.65;;
66761;SDS011;53672;48.176;16.338;2023-02-15T01:48:16;39.27;;;15.37;;
66761;SDS011;53672;48.176;16.338;2023-02-15T01:53:21;37.42;;;14.88;;
66761;SDS011;53672;48.176;16.338;2023-02-15T01:58:26;37.67;;;15.00;;
66761;SDS011;53672;48.176;16.338;2023-02-15T02:03:30;35.60;;;13.80;;
66761;SDS011;53672;48.176;16.338;2023-02-15T02:08:41;37.35;;;14.98;;
66761;SDS011;53672;48.176;16.338;2023-02-15T02:13:44;41.87;;;16.00;;
66761;SDS011;53672;48.176;16.338;2023-02-15T02:18:47;37.78;;;14.77;;
66761;SDS011;53672;48.176;16.338;2023-02-15T02:35:30;40.78;;;14.85;;
66761;SDS011;53672;48.176;16.338;2023-02-15T02:40:41;36.20;;;13.93;;
66761;SDS011;53672;48.176;16.338;2023-02-15T02:45:51;38.15;;;14.63;;
66761;SDS011;53672;48.176;16.338;2023-02-15T02:50:58;41.42;;;16.35;;
66761;SDS011;53672;48.176;16.338;2023-02-15T02:56:00;41.53;;;15.43;;
66761;SDS011;53672;48.176;16.338;2023-02-15T03:01:07;40.97;;;15.43;;
66761;SDS011;53672;48.176;16.338;2023-02-15T03:06:12;38.60;;;14.43;;
66761;SDS011;53672;48.176;16.338;2023-02-15T03:11:16;41.13;;;15.32;;
66761;SDS011;53672;48.176;16.338;2023-02-15T03:16:17;41.97;;;14.67;;
66761;SDS011;53672;48.176;16.338;2023-02-15T03:21:22;41.17;;;15.50;;
66761;SDS011;53672;48.176;16.338;2023-02-15T03:26:27;37.78;;;14.63;;
66761;SDS011;53672;48.176;16.338;2023-02-15T03:31:30;35.53;;;14.17;;
66761;SDS011;53672;48.176;16.338;2023-02-15T03:36:36;42.90;;;15.93;;
66761;SDS011;53672;48.176;16.338;2023-02-15T03:41:44;42.67;;;16.07;;
66761;SDS011;53672;48.176;16.338;2023-02-15T03:46:51;41.08;;;15.48;;
66761;SDS011;53672;48.176;16.338;2023-02-15T03:51:57;43.03;;;15.00;;
66761;SDS011;53672;48.176;16.338;2023-02-15T03:57:00;38.10;;;15.27;;
66761;SDS011;53672;48.176;16.338;2023-02-15T04:02:04;40.45;;;14.98;;
66761;SDS011;53672;48.176;16.338;2023-02-15T04:07:17;42.73;;;15.67;;
66761;SDS011;53672;48.176;16.338;2023-02-15T04:12:17;40.60;;;15.13;;
66761;SDS011;53672;48.176;16.338;2023-02-15T04:17:18;44.50;;;15.73;;
66761;SDS011;53672;48.176;16.338;2023-02-15T04:22:20;42.23;;;15.23;;
66761;SDS011;53672;48.176;16.338;2023-02-15T04:27:20;40.45;;;15.05;;
66761;SDS011;53672;48.176;16.338;2023-02-15T04:32:21;41.97;;;14.07;;
66761;SDS011;53672;48.176;16.338;2023-02-15T04:37:23;39.27;;;14.90;;
66761;SDS011;53672;48.176;16.338;2023-02-15T04:42:23;41.10;;;14.90;;
66761;SDS011;53672;48.176;16.338;2023-02-15T04:47:24;40.07;;;14.43;;
66761;SDS011;53672;48.176;16.338;2023-02-15T04:52:26;42.07;;;14.83;;
66761;SDS011;53672;48.176;16.338;2023-02-15T04:57:26;41.20;;;16.08;;
66761;SDS011;53672;48.176;16.338;2023-02-15T05:02:27;38.60;;;14.80;;
66761;SDS011;53672;48.176;16.338;2023-02-15T05:07:29;40.43;;;15.87;;
66761;SDS011;53672;48.176;16.338;2023-02-15T05:12:29;42.17;;;15.32;;
66761;SDS011;53672;48.176;16.338;2023-02-15T05:17:30;44.08;;;15.40;;
66761;SDS011;53672;48.176;16.338;2023-02-15T05:22:31;40.70;;;14.83;;
66761;SDS011;53672;48.176;16.338;2023-02-15T05:27:32;44.83;;;16.40;;
66761;SDS011;53672;48.176;16.338;2023-02-15T05:32:33;41.80;;;15.00;;
66761;SDS011;53672;48.176;16.338;2023-02-15T05:37:34;44.43;;;15.83;;
66761;SDS011;53672;48.176;16.338;2023-02-15T05:42:35;42.53;;;14.90;;
66761;SDS011;53672;48.176;16.338;2023-02-15T05:47:35;37.20;;;13.97;;
66761;SDS011;53672;48.176;16.338;2023-02-15T05:52:37;43.43;;;16.27;;
66761;SDS011;53672;48.176;16.338;2023-02-15T05:57:38;43.45;;;15.05;;
66761;SDS011;53672;48.176;16.338;2023-02-15T06:02:38;42.57;;;14.17;;
66761;SDS011;53672;48.176;16.338;2023-02-15T06:07:40;38.77;;;14.97;;
66761;SDS011;53672;48.176;16.338;2023-02-15T06:12:43;38.08;;;13.77;;
66761;SDS011;53672;48.176;16.338;2023-02-15T06:17:44;38.30;;;13.68;;
66761;SDS011;53672;48.176;16.338;2023-02-15T06:22:46;39.23;;;14.20;;
66761;SDS011;53672;48.176;16.338;2023-02-15T06:27:46;37.10;;;13.87;;
66761;SDS011;53672;48.176;16.338;2023-02-15T06:32:47;38.47;;;13.70;;
66761;SDS011;53672;48.176;16.338;2023-02-15T06:37:49;37.35;;;13.27;;
66761;SDS011;53672;48.176;16.338;2023-02-15T06:42:50;35.30;;;13.17;;
66761;SDS011;53672;48.176;16.338;2023-02-15T06:47:50;39.22;;;14.63;;
66761;SDS011;53672;48.176;16.338;2023-02-15T06:52:56;34.20;;;12.67;;
66761;SDS011;53672;48.176;16.338;2023-02-15T06:57:56;39.45;;;13.63;;
66761;SDS011;53672;48.176;16.338;2023-02-15T07:02:57;39.17;;;13.43;;
66761;SDS011;53672;48.176;16.338;2023-02-15T07:08:00;38.63;;;13.80;;
66761;SDS011;53672;48.176;16.338;2023-02-15T07:13:01;40.92;;;13.43;;
66761;SDS011;53672;48.176;16.338;2023-02-15T07:18:01;41.37;;;14.77;;
66761;SDS011;53672;48.176;16.338;2023-02-15T07:23:03;37.60;;;12.23;;
66761;SDS011;53672;48.176;16.338;2023-02-15T07:28:04;38.28;;;13.48;;
66761;SDS011;53672;48.176;16.338;2023-02-15T07:33:05;39.97;;;13.10;;
66761;SDS011;53672;48.176;16.338;2023-02-15T07:38:07;39.63;;;14.23;;
66761;SDS011;53672;48.176;16.338;2023-02-15T07:43:07;33.55;;;12.13;;
66761;SDS011;53672;48.176;16.338;2023-02-15T07:48:08;34.53;;;13.60;;
66761;SDS011;53672;48.176;16.338;2023-02-15T07:53:10;40.07;;;13.50;;
66761;SDS011;53672;48.176;16.338;2023-02-15T07:58:11;38.17;;;14.98;;
66761;SDS011;53672;48.176;16.338;2023-02-15T08:03:11;37.67;;;14.77;;
66761;SDS011;53672;48.176;16.338;2023-02-15T08:08:13;35.40;;;13.60;;
66761;SDS011;53672;48.176;16.338;2023-02-15T08:13:14;37.55;;;13.05;;
66761;SDS011;53672;48.176;16.338;2023-02-15T08:18:14;33.13;;;12.87;;
66761;SDS011;53672;48.176;16.338;2023-02-15T08:23:16;35.37;;;12.83;;
66761;SDS011;53672;48.176;16.338;2023-02-15T08:28:17;38.92;;;13.82;;
66761;SDS011;53672;48.176;16.338;2023-02-15T08:33:17;34.92;;;12.52;;
66761;SDS011;53672;48.176;16.338;2023-02-15T08:38:19;35.47;;;12.67;;
66761;SDS011;53672;48.176;16.338;2023-02-15T08:43:19;35.17;;;13.07;;
66761;SDS011;53672;48.176;16.338;2023-02-15T08:48:20;37.17;;;13.23;;
66761;SDS011;53672;48.176;16.338;2023-02-15T08:53:22;36.40;;;13.10;;
66761;SDS011;53672;48.176;16.338;2023-02-15T08:58:22;35.50;;;13.30;;
66761;SDS011;53672;48.176;16.338;2023-02-15T09:03:23;37.50;;;13.23;;
66761;SDS011;53672;48.176;16.338;2023-02-15T09:08:25;39.17;;;14.10;;
66761;SDS011;53672;48.176;16.338;2023-02-15T09:13:25;37.72;;;13.75;;
66761;SDS011;53672;48.176;16.338;2023-02-15T09:18:26;36.27;;;13.40;;
66761;SDS011;53672;48.176;16.338;2023-02-15T09:23:28;38.07;;;12.63;;
66761;SDS011;53672;48.176;16.338;2023-02-15T09:28:29;37.08;;;14.10;;
66761;SDS011;53672;48.176;16.338;2023-02-15T09:33:29;36.97;;;13.63;;
66761;SDS011;53672;48.176;16.338;2023-02-15T09:38:31;40.23;;;13.60;;
66761;SDS011;53672;48.176;16.338;2023-02-15T09:43:33;39.58;;;14.60;;
66761;SDS011;53672;48.176;16.338;2023-02-15T09:48:42;35.97;;;13.53;;
66761;SDS011;53672;48.176;16.338;2023-02-15T09:53:52;35.72;;;13.48;;
66761;SDS011;53672;48.176;16.338;2023-02-15T09:59:05;38.35;;;14.50;;
66761;SDS011;53672;48.176;16.338;2023-02-15T10:04:19;35.58;;;14.30;;
66761;SDS011;53672;48.176;16.338;2023-02-15T10:09:37;40.38;;;14.52;;
66761;SDS011;53672;48.176;16.338;2023-02-15T10:14:52;34.30;;;13.17;;
66761;SDS011;53672;48.176;16.338;2023-02-15T10:20:09;36.30;;;13.93;;
66761;SDS011;53672;48.176;16.338;2023-02-15T10:25:26;33.95;;;13.32;;
66761;SDS011;53672;48.176;16.338;2023-02-15T10:30:36;34.95;;;13.18;;
66761;SDS011;53672;48.176;16.338;2023-02-15T10:35:42;33.95;;;13.27;;
66761;SDS011;53672;48.176;16.338;2023-02-15T10:40:57;32.47;;;13.13;;
66761;SDS011;53672;48.176;16.338;2023-02-15T10:46:11;38.97;;;14.20;;
66761;SDS011;53672;48.176;16.338;2023-02-15T10:51:25;35.42;;;12.80;;
66761;SDS011;53672;48.176;16.338;2023-02-15T10:56:36;35.42;;;13.52;;
66761;SDS011;53672;48.176;16.338;2023-02-15T11:01:49;32.03;;;13.43;;
66761;SDS011;53672;48.176;16.338;2023-02-15T11:06:54;33.67;;;13.33;;
66761;SDS011;53672;48.176;16.338;2023-02-15T11:12:00;34.80;;;13.32;;
66761;SDS011;53672;48.176;16.338;2023-02-15T11:17:02;33.28;;;12.88;;
66761;SDS011;53672;48.176;16.338;2023-02-15T11:22:09;35.45;;;13.77;;
66761;SDS011;53672;48.176;16.338;2023-02-15T11:27:15;36.60;;;13.60;;
66761;SDS011;53672;48.176;16.338;2023-02-15T11:32:20;33.73;;;13.53;;
66761;SDS011;53672;48.176;16.338;2023-02-15T11:37:24;38.20;;;13.90;;
66761;SDS011;53672;48.176;16.338;2023-02-15T11:42:31;36.28;;;13.90;;
66761;SDS011;53672;48.176;16.338;2023-02-15T11:47:33;36.92;;;13.85;;
66761;SDS011;53672;48.176;16.338;2023-02-15T11:52:33;38.40;;;14.13;;
66761;SDS011;53672;48.176;16.338;2023-02-15T11:57:36;33.67;;;12.67;;
66761;SDS011;53672;48.176;16.338;2023-02-15T12:02:39;35.97;;;14.05;;
66761;SDS011;53672;48.176;16.338;2023-02-15T12:07:47;37.45;;;14.07;;
66761;SDS011;53672;48.176;16.338;2023-02-15T12:13:08;33.77;;;13.07;;
66761;SDS011;53672;48.176;16.338;2023-02-15T12:18:16;37.95;;;14.55;;
66761;SDS011;53672;48.176;16.338;2023-02-15T12:23:20;35.73;;;13.67;;
66761;SDS011;53672;48.176;16.338;2023-02-15T12:28:24;33.83;;;13.50;;
66761;SDS011;53672;48.176;16.338;2023-02-15T12:33:28;38.10;;;13.65;;
66761;SDS011;53672;48.176;16.338;2023-02-15T12:38:31;37.60;;;13.57;;
66761;SDS011;53672;48.176;16.338;2023-02-15T12:43:34;35.87;;;14.00;;
66761;SDS011;53672;48.176;16.338;2023-02-15T12:48:35;35.88;;;14.20;;
66761;SDS011;53672;48.176;16.338;2023-02-15T12:53:36;37.60;;;13.80;;
66761;SDS011;53672;48.176;16.338;2023-02-15T12:58:38;40.27;;;14.97;;
66761;SDS011;53672;48.176;16.338;2023-02-15T13:03:50;34.00;;;13.40;;
66761;SDS011;53672;48.176;16.338;2023-02-15T13:08:57;36.60;;;13.82;;
66761;SDS011;53672;48.176;16.338;2023-02-15T13:14:16;38.63;;;14.98;;
66761;SDS011;53672;48.176;16.338;2023-02-15T13:19:19;35.55;;;13.90;;
66761;SDS011;53672;48.176;16.338;2023-02-15T13:24:26;37.33;;;14.07;;
66761;SDS011;53672;48.176;16.338;2023-02-15T13:29:31;37.17;;;13.63;;
66761;SDS011;53672;48.176;16.338;2023-02-15T13:34:36;39.88;;;14.95;;
66761;SDS011;53672;48.176;16.338;2023-02-15T13:39:40;36.83;;;14.10;;
66761;SDS011;53672;48.176;16.338;2023-02-15T13:50:27;40.67;;;15.27;;
66761;SDS011;53672;48.176;16.338;2023-02-15T13:55:38;38.03;;;14.73;;
66761;SDS011;53672;48.176;16.338;2023-02-15T14:00:48;38.08;;;14.27;;
66761;SDS011;53672;48.176;16.338;2023-02-15T14:06:02;36.30;;;13.88;;
66761;SDS011;53672;48.176;16.338;2023-02-15T14:11:15;39.67;;;14.55;;
66761;SDS011;53672;48.176;16.338;2023-02-15T14:16:25;38.40;;;15.53;;
66761;SDS011;53672;48.176;16.338;2023-02-15T14:21:34;37.00;;;14.73;;
66761;SDS011;53672;48.176;16.338;2023-02-15T14:26:45;35.55;;;13.63;;
66761;SDS011;53672;48.176;16.338;2023-02-15T14:31:52;33.03;;;13.48;;
66761;SDS011;53672;48.176;16.338;2023-02-15T14:36:55;36.63;;;14.25;;
66761;SDS011;53672;48.176;16.338;2023-02-15T14:41:57;37.90;;;13.70;;
66761;SDS011;53672;48.176;16.338;2023-02-15T14:47:04;37.83;;;14.77;;
66761;SDS011;53672;48.176;16.338;2023-02-15T14:52:11;37.00;;;13.38;;
66761;SDS011;53672;48.176;16.338;2023-02-15T14:57:22;39.92;;;14.80;;
66761;SDS011;53672;48.176;16.338;2023-02-15T15:02:27;37.08;;;14.60;;
66761;SDS011;53672;48.176;16.338;2023-02-15T15:07:35;39.20;;;14.27;;
66761;SDS011;53672;48.176;16.338;2023-02-15T15:12:39;38.80;;;14.15;;
66761;SDS011;53672;48.176;16.338;2023-02-15T15:51:02;41.15;;;16.67;;
66761;SDS011;53672;48.176;16.338;2023-02-15T15:56:07;44.55;;;16.90;;
66761;SDS011;53672;48.176;16.338;2023-02-15T16:01:11;46.80;;;17.67;;
66761;SDS011;53672;48.176;16.338;2023-02-15T16:06:25;48.72;;;16.88;;
66761;SDS011;53672;48.176;16.338;2023-02-15T16:11:27;49.30;;;16.23;;
66761;SDS011;53672;48.176;16.338;2023-02-15T16:16:30;44.72;;;16.15;;
66761;SDS011;53672;48.176;16.338;2023-02-15T16:21:33;49.47;;;18.17;;
66761;SDS011;53672;48.176;16.338;2023-02-15T16:26:40;50.67;;;18.40;;
66761;SDS011;53672;48.176;16.338;2023-02-15T16:31:59;56.55;;;18.17;;
66761;SDS011;53672;48.176;16.338;2023-02-15T16:37:17;53.30;;;18.37;;
66761;SDS011;53672;48.176;16.338;2023-02-15T16:42:20;52.50;;;19.25;;
66761;SDS011;53672;48.176;16.338;2023-02-15T16:47:22;55.10;;;18.33;;
66761;SDS011;53672;48.176;16.338;2023-02-15T16:52:30;52.63;;;18.95;;
66761;SDS011;53672;48.176;16.338;2023-02-15T16:57:32;54.53;;;19.35;;
66761;SDS011;53672;48.176;16.338;2023-02-15T17:02:35;62.83;;;20.20;;
66761;SDS011;53672;48.176;16.338;2023-02-15T17:07:40;60.40;;;20.55;;
66761;SDS011;53672;48.176;16.338;2023-02-15T17:12:45;57.93;;;20.27;;
66761;SDS011;53672;48.176;16.338;2023-02-15T17:17:51;67.65;;;22.67;;
66761;SDS011;53672;48.176;16.338;2023-02-15T17:22:56;66.03;;;22.60;;
66761;SDS011;53672;48.176;16.338;2023-02-15T17:27:58;60.28;;;20.98;;
66761;SDS011;53672;48.176;16.338;2023-02-15T17:32:59;60.58;;;21.05;;
66761;SDS011;53672;48.176;16.338;2023-02-15T17:38:14;66.23;;;21.50;;
66761;SDS011;53672;48.176;16.338;2023-02-15T17:43:18;65.32;;;22.30;;
66761;SDS011;53672;48.176;16.338;2023-02-15T17:48:20;65.37;;;23.77;;
66761;SDS011;53672;48.176;16.338;2023-02-15T17:53:25;70.55;;;23.65;;
66761;SDS011;53672;48.176;16.338;2023-02-15T17:58:26;64.50;;;22.60;;
66761;SDS011;53672;48.176;16.338;2023-02-15T18:03:28;69.97;;;23.90;;
66761;SDS011;53672;48.176;16.338;2023-02-15T18:08:41;74.18;;;23.58;;
66761;SDS011;53672;48.176;16.338;2023-02-15T18:13:42;72.67;;;23.37;;
66761;SDS011;53672;48.176;16.338;2023-02-15T18:18:44;72.97;;;23.38;;
66761;SDS011;53672;48.176;16.338;2023-02-15T18:23:50;74.73;;;24.73;;
66761;SDS011;53672;48.176;16.338;2023-02-15T18:28:51;76.78;;;24.88;;
66761;SDS011;53672;48.176;16.338;2023-02-15T18:33:53;71.00;;;23.33;;
66761;SDS011;53672;48.176;16.338;2023-02-15T18:39:02;71.33;;;24.20;;
66761;SDS011;53672;48.176;16.338;2023-02-15T18:44:08;76.28;;;25.05;;
66761;SDS011;53672;48.176;16.338;2023-02-15T18:49:11;76.60;;;24.63;;
66761;SDS011;53672;48.176;16.338;2023-02-15T18:54:16;69.57;;;24.48;;
66761;SDS011;53672;48.176;16.338;2023-02-15T18:59:20;86.20;;;26.80;;
66761;SDS011;53672;48.176;16.338;2023-02-15T19:04:21;81.00;;;26.37;;
66761;SDS011;53672;48.176;16.338;2023-02-15T19:09:26;86.10;;;27.73;;
66761;SDS011;53672;48.176;16.338;2023-02-15T19:14:28;82.30;;;27.60;;
66761;SDS011;53672;48.176;16.338;2023-02-15T19:19:31;87.07;;;26.67;;
66761;SDS011;53672;48.176;16.338;2023-02-15T19:24:35;89.72;;;27.40;;
66761;SDS011;53672;48.176;16.338;2023-02-15T19:29:41;85.90;;;27.15;;
66761;SDS011;53672;48.176;16.338;2023-02-15T19:34:42;79.22;;;25.83;;
66761;SDS011;53672;48.176;16.338;2023-02-15T19:39:46;80.80;;;26.60;;
66761;SDS011;53672;48.176;16.338;2023-02-15T19:44:47;84.38;;;27.08;;
66761;SDS011;53672;48.176;16.338;2023-02-15T19:49:48;91.43;;;27.05;;
66761;SDS011;53672;48.176;16.338;2023-02-15T19:54:51;95.85;;;27.65;;
66761;SDS011;53672;48.176;16.338;2023-02-15T19:59:54;93.63;;;28.75;;
66761;SDS011;53672;48.176;16.338;2023-02-15T20:04:55;92.07;;;28.30;;
66761;SDS011;53672;48.176;16.338;2023-02-15T20:10:01;94.32;;;28.98;;
66761;SDS011;53672;48.176;16.338;2023-02-15T20:15:16;91.47;;;28.35;;
66761;SDS011;53672;48.176;16.338;2023-02-15T20:20:20;85.35;;;26.80;;
66761;SDS011;53672;48.176;16.338;2023-02-15T20:25:25;82.50;;;25.70;;
66761;SDS011;53672;48.176;16.338;2023-02-15T20:30:29;79.83;;;26.30;;
66761;SDS011;53672;48.176;16.338;2023-02-15T20:35:31;86.38;;;26.98;;
66761;SDS011;53672;48.176;16.338;2023-02-15T20:40:34;86.70;;;27.50;;
66761;SDS011;53672;48.176;16.338;2023-02-15T20:45:36;76.18;;;26.88;;
66761;SDS011;53672;48.176;16.338;2023-02-15T20:50:37;78.53;;;27.85;;
66761;SDS011;53672;48.176;16.338;2023-02-15T20:55:41;76.97;;;26.50;;
66761;SDS011;53672;48.176;16.338;2023-02-15T21:00:44;83.82;;;29.05;;
66761;SDS011;53672;48.176;16.338;2023-02-15T21:05:45;80.65;;;27.35;;
66761;SDS011;53672;48.176;16.338;2023-02-15T21:10:49;74.75;;;26.08;;
66761;SDS011;53672;48.176;16.338;2023-02-15T21:15:52;78.25;;;27.50;;
66761;SDS011;53672;48.176;16.338;2023-02-15T21:20:56;73.23;;;24.33;;
66761;SDS011;53672;48.176;16.338;2023-02-15T21:26:00;73.50;;;25.15;;
66761;SDS011;53672;48.176;16.338;2023-02-15T21:31:02;74.57;;;24.90;;
66761;SDS011;53672;48.176;16.338;2023-02-15T21:36:08;81.57;;;27.38;;
66761;SDS011;53672;48.176;16.338;2023-02-15T21:41:16;87.75;;;29.83;;
66761;SDS011;53672;48.176;16.338;2023-02-15T21:46:18;82.90;;;26.70;;
66761;SDS011;53672;48.176;16.338;2023-02-15T21:51:19;76.88;;;26.60;;
66761;SDS011;53672;48.176;16.338;2023-02-15T21:56:21;72.33;;;23.00;;
66761;SDS011;53672;48.176;16.338;2023-02-15T22:01:23;73.43;;;24.52;;
66761;SDS011;53672;48.176;16.338;2023-02-15T22:06:24;73.70;;;23.17;;
66761;SDS011;53672;48.176;16.338;2023-02-15T22:11:28;76.30;;;24.53;;
66761;SDS011;53672;48.176;16.338;2023-02-15T22:16:28;76.80;;;26.10;;
66761;SDS011;53672;48.176;16.338;2023-02-15T22:21:29;79.03;;;24.70;;
66761;SDS011;53672;48.176;16.338;2023-02-15T22:26:31;77.73;;;25.40;;
66761;SDS011;53672;48.176;16.338;2023-02-15T22:31:31;79.47;;;26.35;;
66761;SDS011;53672;48.176;16.338;2023-02-15T22:36:32;82.20;;;25.70;;
66761;SDS011;53672;48.176;16.338;2023-02-15T22:41:34;72.20;;;23.97;;
66761;SDS011;53672;48.176;16.338;2023-02-15T22:46:35;78.63;;;23.92;;
66761;SDS011;53672;48.176;16.338;2023-02-15T22:51:35;78.07;;;25.33;;
66761;SDS011;53672;48.176;16.338;2023-02-15T22:56:38;87.07;;;26.03;;
66761;SDS011;53672;48.176;16.338;2023-02-15T23:01:40;86.22;;;25.13;;
66761;SDS011;53672;48.176;16.338;2023-02-15T23:06:41;90.27;;;24.73;;
66761;SDS011;53672;48.176;16.338;2023-02-15T23:11:44;93.68;;;25.80;;
66761;SDS011;53672;48.176;16.338;2023-02-15T23:16:44;97.73;;;27.37;;
66761;SDS011;53672;48.176;16.338;2023-02-15T23:21:45;97.57;;;26.93;;
66761;SDS011;53672;48.176;16.338;2023-02-15T23:26:47;106.90;;;29.27;;
66761;SDS011;53672;48.176;16.338;2023-02-15T23:31:49;115.57;;;29.02;;
66761;SDS011;53672;48.176;16.338;2023-02-15T23:36:51;93.82;;;28.00;;
66761;SDS011;53672;48.176;16.338;2023-02-15T23:41:53;99.40;;;26.87;;
66761;SDS011;53672;48.176;16.338;2023-02-15T23:46:53;103.10;;;27.00;;
66761;SDS011;53672;48.176;16.338;2023-02-15T23:51:54;106.13;;;28.65;;
66761;SDS011;53672;48.176;16.338;2023-02-15T23:56:58;107.85;;;30.23;;
